Time;durP1;ratioP1;P1;durP2;ratioP2;P2;SDS_P1;SDS_P2;PMS_P1;PMS_P2;Temp;Humidity;BMP_temperature;BMP_pressure;BME280_temperature;BME280_humidity;BME280_pressure;Samples;Min_cycle;Max_cycle;Signal;HPM_P1;HPM_P2
2024/01/01 00:02:14;;;;;;;62.90;36.40;;;;;;;4.03;100.00;99807.43;106192;1254;99991;-80
2024/01/01 00:05:00;;;;;;;69.60;39.90;;;;;;;4.03;100.00;99797.69;106208;1258;100466;-80
2024/01/01 00:07:50;;;;;;;72.00;39.90;;;;;;;4.04;100.00;99789.29;106333;1257;97801;-79
2024/01/01 00:10:36;;;;;;;65.40;38.30;;;;;;;4.03;100.00;99787.56;106211;1257;96516;-78
2024/01/01 00:13:21;;;;;;;82.00;44.90;;;;;;;4.04;100.00;99795.05;106380;1258;98270;-78
2024/01/01 00:16:07;;;;;;;97.80;50.00;;;;;;;4.03;100.00;99793.02;106281;1257;101352;-79
2024/01/01 00:18:52;;;;;;;95.90;52.30;;;;;;;4.02;100.00;99795.08;106316;1262;99103;-78
2024/01/01 00:21:38;;;;;;;95.00;51.70;;;;;;;4.01;100.00;99801.23;106196;1259;97814;-79
2024/01/01 00:24:24;;;;;;;97.20;49.60;;;;;;;4.01;100.00;99795.00;106249;1258;96605;-79
2024/01/01 00:27:09;;;;;;;90.70;52.40;;;;;;;4.03;100.00;99786.02;106251;1259;96774;-79
2024/01/01 00:29:54;;;;;;;83.70;48.90;;;;;;;4.04;100.00;99782.06;106340;1254;101240;-80
2024/01/01 00:32:40;;;;;;;92.90;51.60;;;;;;;4.05;100.00;99785.98;106233;1260;99784;-80
2024/01/01 00:35:25;;;;;;;100.20;55.30;;;;;;;4.05;100.00;99786.27;106224;1255;98666;-79
2024/01/01 00:38:11;;;;;;;96.40;54.00;;;;;;;4.05;100.00;99783.68;106209;1261;96530;-80
2024/01/01 00:40:56;;;;;;;100.60;55.10;;;;;;;4.06;100.00;99790.28;106572;1254;97757;-80
2024/01/01 00:43:45;;;;;;;109.70;58.10;;;;;;;4.07;100.00;99789.26;107278;1254;100138;-80
2024/01/01 00:46:31;;;;;;;98.20;55.70;;;;;;;4.09;100.00;99793.46;107217;1258;100374;-81
2024/01/01 00:49:17;;;;;;;107.70;61.50;;;;;;;4.10;100.00;99799.32;107164;1259;98867;-81
2024/01/01 00:52:02;;;;;;;105.10;61.40;;;;;;;4.11;100.00;99793.56;107221;1254;96611;-79
2024/01/01 00:54:47;;;;;;;108.10;61.40;;;;;;;4.14;100.00;99797.52;105922;1254;96857;-79
2024/01/01 00:57:33;;;;;;;111.30;61.80;;;;;;;4.16;100.00;99797.51;106163;1260;101064;-80
2024/01/01 01:00:18;;;;;;;107.20;62.80;;;;;;;4.15;100.00;99794.92;106171;1254;99127;-81
2024/01/01 01:03:04;;;;;;;109.10;63.00;;;;;;;4.15;100.00;99797.20;106240;1257;97706;-81
2024/01/01 01:05:49;;;;;;;115.10;65.70;;;;;;;4.14;100.00;99794.15;106293;1257;96818;-79
2024/01/01 01:08:35;;;;;;;114.20;68.70;;;;;;;4.13;100.00;99794.21;105809;1253;96667;-78
2024/01/01 01:11:20;;;;;;;126.50;72.40;;;;;;;4.15;100.00;99797.80;105893;1255;100029;-79
2024/01/01 01:14:07;;;;;;;121.90;74.20;;;;;;;4.14;100.00;99804.58;106200;1257;100325;-80
2024/01/01 01:16:52;;;;;;;128.80;74.10;;;;;;;4.14;100.00;99802.30;106255;1258;98530;-80
2024/01/01 01:19:38;;;;;;;130.80;74.60;;;;;;;4.15;100.00;99804.25;106200;1260;96639;-78
2024/01/01 01:22:23;;;;;;;129.40;75.10;;;;;;;4.16;100.00;99807.70;106098;1254;97093;-80
2024/01/01 01:25:09;;;;;;;129.80;76.70;;;;;;;4.16;100.00;99804.19;106705;1254;100691;-80
2024/01/01 01:27:55;;;;;;;132.00;78.10;;;;;;;4.17;100.00;99803.86;107164;1257;100538;-79
2024/01/01 01:30:40;;;;;;;131.60;76.90;;;;;;;4.19;100.00;99797.30;105866;1260;272053;-80
2024/01/01 01:33:26;;;;;;;132.90;77.40;;;;;;;4.22;100.00;99793.48;106759;1254;96501;-80
2024/01/01 01:36:14;;;;;;;136.70;81.90;;;;;;;4.23;100.00;99787.73;106723;1254;97107;-80
2024/01/01 01:38:59;;;;;;;130.00;78.70;;;;;;;4.24;100.00;99781.08;106706;1255;101327;-80
2024/01/01 01:41:46;;;;;;;134.00;78.60;;;;;;;4.25;100.00;99779.41;106364;1258;99160;-80
2024/01/01 01:44:33;;;;;;;139.10;82.40;;;;;;;4.24;100.00;99779.27;106305;1254;97728;-80
2024/01/01 01:47:18;;;;;;;127.40;77.50;;;;;;;4.24;100.00;99776.76;106193;1254;96521;-79
2024/01/01 01:50:06;;;;;;;113.30;69.60;;;;;;;4.24;100.00;99765.66;106253;1254;96493;-79
2024/01/01 01:52:53;;;;;;;112.90;64.50;;;;;;;4.23;100.00;99762.65;106394;1260;99985;-80
2024/01/01 01:55:42;;;;;;;112.50;64.20;;;;;;;4.22;100.00;99765.76;106701;1254;100376;-79
2024/01/01 01:58:28;;;;;;;108.70;61.60;;;;;;;4.20;100.00;99768.29;106393;1254;97722;-78
2024/01/01 02:01:15;;;;;;;109.50;62.20;;;;;;;4.19;100.00;99772.26;106184;1260;97861;-78
2024/01/01 02:04:01;;;;;;;106.40;60.60;;;;;;;4.19;100.00;99776.16;106442;1254;96654;-79
2024/01/01 02:06:46;;;;;;;99.70;57.00;;;;;;;4.19;100.00;99780.41;106317;1254;99996;-80
2024/01/01 02:09:32;;;;;;;106.30;57.90;;;;;;;4.18;100.00;99784.05;106424;1254;100583;-79
2024/01/01 02:12:17;;;;;;;103.20;58.60;;;;;;;4.18;100.00;99782.79;106455;1254;97786;-79
2024/01/01 02:15:03;;;;;;;93.10;54.70;;;;;;;4.19;100.00;99778.05;106304;1254;96387;-80
2024/01/01 02:17:49;;;;;;;92.10;53.50;;;;;;;4.21;100.00;99767.72;107053;1254;96442;-80
2024/01/01 02:20:34;;;;;;;95.60;56.40;;;;;;;4.23;100.00;99764.01;106847;1254;99989;-80
2024/01/01 02:23:19;;;;;;;110.00;55.90;;;;;;;4.25;100.00;99762.22;106991;1260;100523;-80
2024/01/01 02:26:07;;;;;;;91.40;53.10;;;;;;;4.23;100.00;99759.64;106924;1254;99271;-81
2024/01/01 02:28:53;;;;;;;92.10;53.20;;;;;;;4.23;100.00;99757.52;106901;1260;96552;-80
2024/01/01 02:31:38;;;;;;;92.00;50.60;;;;;;;4.24;100.00;99755.59;107275;1254;96353;-80
2024/01/01 02:34:26;;;;;;;91.20;51.80;;;;;;;4.24;100.00;99757.13;107255;1254;100025;-80
2024/01/01 02:37:12;;;;;;;98.40;52.90;;;;;;;4.25;100.00;99750.58;107589;1254;100657;-80
2024/01/01 02:39:58;;;;;;;90.20;50.80;;;;;;;4.26;100.00;99738.59;107316;1259;97694;-80
2024/01/01 02:42:43;;;;;;;94.20;51.00;;;;;;;4.27;100.00;99736.50;107332;1255;96596;-80
2024/01/01 02:45:30;;;;;;;91.30;51.00;;;;;;;4.27;100.00;99740.02;107276;1260;96433;-81
2024/01/01 02:48:15;;;;;;;90.70;52.00;;;;;;;4.29;100.00;99740.77;107476;1257;100857;-81
2024/01/01 02:51:00;;;;;;;93.40;50.10;;;;;;;4.31;100.00;99732.95;107499;1254;99320;-79
2024/01/01 02:53:46;;;;;;;89.90;49.80;;;;;;;4.33;100.00;99729.73;107429;1257;98385;-81
2024/01/01 02:56:31;;;;;;;88.00;49.00;;;;;;;4.34;100.00;99727.65;107386;1254;96609;-80
2024/01/01 02:59:17;;;;;;;96.80;50.70;;;;;;;4.35;100.00;99725.27;107413;1258;96530;-80
2024/01/01 03:02:03;;;;;;;94.10;50.70;;;;;;;4.34;100.00;99731.36;107307;1257;99947;-81
2024/01/01 03:04:48;;;;;;;91.20;48.50;;;;;;;4.31;100.00;99729.51;106480;1258;99620;-78
2024/01/01 03:07:34;;;;;;;86.80;46.60;;;;;;;4.28;100.00;99730.60;105767;1257;97783;-79
2024/01/01 03:10:20;;;;;;;92.70;50.00;;;;;;;4.26;100.00;99735.20;105845;1254;96821;-79
2024/01/01 03:13:05;;;;;;;86.40;47.00;;;;;;;4.25;100.00;99735.54;105921;1254;97289;-78
2024/01/01 03:15:50;;;;;;;92.70;49.40;;;;;;;4.23;100.00;99731.14;105657;1261;101220;-78
2024/01/01 03:18:36;;;;;;;100.60;50.90;;;;;;;4.22;100.00;99731.60;105791;1254;100324;-77
2024/01/01 03:21:22;;;;;;;89.20;49.50;;;;;;;4.21;100.00;99734.71;105894;1258;97711;-80
2024/01/01 03:24:08;;;;;;;92.90;49.10;;;;;;;4.19;100.00;99736.38;106181;1260;96647;-80
2024/01/01 03:26:53;;;;;;;91.60;48.00;;;;;;;4.17;100.00;99739.42;106351;1259;97926;-79
2024/01/01 03:29:39;;;;;;;94.40;49.10;;;;;;;4.14;100.00;99745.04;106327;1257;100031;-79
2024/01/01 03:32:24;;;;;;;90.80;47.90;;;;;;;4.12;100.00;99746.55;106363;1257;99866;-79
2024/01/01 03:35:09;;;;;;;80.90;45.90;;;;;;;4.12;100.00;99743.38;106356;1254;97765;-79
2024/01/01 03:37:55;;;;;;;95.50;47.40;;;;;;;4.14;100.00;99739.20;106396;1257;96699;-80
2024/01/01 03:40:41;;;;;;;98.90;47.90;;;;;;;4.15;100.00;99732.17;107034;1254;96689;-79
2024/01/01 03:43:27;;;;;;;88.80;47.00;;;;;;;4.15;100.00;99726.98;106858;1254;101420;-80
2024/01/01 03:46:12;;;;;;;94.70;47.30;;;;;;;4.16;100.00;99724.85;106999;1253;99071;-79
2024/01/01 03:48:58;;;;;;;90.90;48.20;;;;;;;4.17;100.00;99719.12;106243;1254;99006;-80
2024/01/01 03:51:43;;;;;;;91.30;47.70;;;;;;;4.17;100.00;99724.38;106263;1254;96424;-79
2024/01/01 03:54:29;;;;;;;87.10;46.20;;;;;;;4.16;100.00;99724.13;106999;1254;96547;-80
2024/01/01 03:57:15;;;;;;;94.20;50.00;;;;;;;4.17;100.00;99726.74;107086;1254;100017;-80
2024/01/01 04:00:00;;;;;;;96.50;46.60;;;;;;;4.17;100.00;99730.19;106473;1254;100439;-80
2024/01/01 04:02:48;;;;;;;90.30;45.80;;;;;;;4.19;100.00;99728.26;106534;1254;98469;-80
2024/01/01 04:05:33;;;;;;;101.30;49.40;;;;;;;4.21;100.00;99724.12;106348;1254;96720;-79
2024/01/01 04:08:19;;;;;;;97.30;51.70;;;;;;;4.24;100.00;99730.38;106499;1259;96414;-79
2024/01/01 04:11:04;;;;;;;103.20;50.20;;;;;;;4.26;100.00;99728.88;106325;1253;99982;-80
2024/01/01 04:13:50;;;;;;;98.00;47.50;;;;;;;4.27;100.00;99723.95;106497;1254;100948;-79
2024/01/01 04:16:36;;;;;;;100.70;47.50;;;;;;;4.28;100.00;99718.57;106344;1254;97890;-80
2024/01/01 04:19:21;;;;;;;96.50;49.10;;;;;;;4.29;100.00;99713.27;106259;1254;96561;-79
2024/01/01 04:22:07;;;;;;;100.00;49.80;;;;;;;4.31;100.00;99710.79;106553;1256;96539;-79
2024/01/01 04:24:52;;;;;;;102.70;49.20;;;;;;;4.32;100.00;99704.69;106561;1253;101259;-79
2024/01/01 04:27:38;;;;;;;101.50;48.80;;;;;;;4.33;100.00;99697.90;105710;1254;100548;-79
2024/01/01 04:30:24;;;;;;;103.60;48.60;;;;;;;4.35;100.00;99689.14;105772;1254;97683;-78
2024/01/01 04:33:09;;;;;;;110.00;51.20;;;;;;;4.36;100.00;99689.56;105795;1254;96530;-79
2024/01/01 04:35:55;;;;;;;99.30;48.50;;;;;;;4.37;100.00;99694.11;105800;1257;97164;-78
2024/01/01 04:38:41;;;;;;;109.10;52.70;;;;;;;4.36;100.00;99693.77;105775;1255;100892;-79
2024/01/01 04:41:26;;;;;;;110.90;50.10;;;;;;;4.37;100.00;99695.85;105720;1259;99163;-79
2024/01/01 04:44:12;;;;;;;107.90;50.30;;;;;;;4.34;100.00;99695.20;105641;1261;97823;-78
2024/01/01 04:46:57;;;;;;;99.80;49.50;;;;;;;4.35;100.00;99692.02;105725;1258;96694;-78
2024/01/01 04:49:43;;;;;;;113.10;53.00;;;;;;;4.35;100.00;99685.77;105847;1255;96620;-79
2024/01/01 04:52:29;;;;;;;112.10;55.00;;;;;;;4.36;100.00;99689.59;105605;1254;100668;-79
2024/01/01 04:55:14;;;;;;;102.00;49.90;;;;;;;4.35;100.00;99686.36;105800;1254;99152;-78
2024/01/01 04:58:00;;;;;;;111.40;51.20;;;;;;;4.35;100.00;99688.65;105599;1259;98960;-78
2024/01/01 05:00:46;;;;;;;106.30;51.60;;;;;;;4.35;100.00;99690.00;105671;1258;96685;-79
2024/01/01 05:03:32;;;;;;;108.70;51.90;;;;;;;4.34;100.00;99683.73;105629;1254;97801;-79
2024/01/01 05:06:18;;;;;;;116.60;54.10;;;;;;;4.34;100.00;99680.63;105696;1257;100714;-78
2024/01/01 05:09:04;;;;;;;104.80;51.10;;;;;;;4.33;100.00;99675.91;105708;1258;99180;-78
2024/01/01 05:11:50;;;;;;;109.20;52.40;;;;;;;4.35;100.00;99667.77;105708;1254;98826;-78
2024/01/01 05:14:38;;;;;;;107.60;52.40;;;;;;;4.37;100.00;99667.92;105800;1254;96690;-77
2024/01/01 05:17:23;;;;;;;110.60;49.50;;;;;;;4.37;100.00;99662.95;106449;1254;97205;-79
2024/01/01 05:20:09;;;;;;;103.70;48.00;;;;;;;4.38;100.00;99665.84;106338;1254;100104;-79
2024/01/01 05:22:54;;;;;;;95.50;46.10;;;;;;;4.39;100.00;99668.42;106343;1254;99172;-78
2024/01/01 05:25:40;;;;;;;97.10;42.90;;;;;;;4.40;100.00;99667.26;105861;1259;99120;-79
2024/01/01 05:28:26;;;;;;;82.80;40.70;;;;;;;4.39;100.00;99666.10;105776;1254;97798;-79
2024/01/01 05:31:11;;;;;;;92.60;43.60;;;;;;;4.37;100.00;99666.98;105713;1259;97148;-78
2024/01/01 05:33:57;;;;;;;89.00;39.90;;;;;;;4.36;100.00;99669.80;105706;1254;100866;-79
2024/01/01 05:36:42;;;;;;;84.70;40.20;;;;;;;4.37;100.00;99674.09;105701;1257;99072;-78
2024/01/01 05:39:28;;;;;;;90.50;41.80;;;;;;;4.38;100.00;99675.38;105655;1254;97751;-78
2024/01/01 05:42:14;;;;;;;90.00;40.40;;;;;;;4.38;100.00;99673.98;105763;1254;97967;-79
2024/01/01 05:44:59;;;;;;;79.90;39.20;;;;;;;4.39;100.00;99675.11;105789;1255;96850;-78
2024/01/01 05:47:45;;;;;;;84.20;40.00;;;;;;;4.40;100.00;99672.89;105613;1258;101022;-79
2024/01/01 05:50:30;;;;;;;83.20;39.70;;;;;;;4.40;100.00;99669.64;105804;1255;99143;-78
2024/01/01 05:53:15;;;;;;;84.20;38.20;;;;;;;4.39;100.00;99672.92;105872;1254;98550;-79
2024/01/01 05:56:03;;;;;;;75.60;37.50;;;;;;;4.35;100.00;99671.60;105693;1257;96797;-78
2024/01/01 05:58:49;;;;;;;89.70;39.40;;;;;;;4.32;100.00;99667.40;105793;1254;97050;-78
2024/01/01 06:01:34;;;;;;;81.80;37.90;;;;;;;4.30;100.00;99669.06;105785;1254;100089;-79
2024/01/01 06:04:20;;;;;;;88.70;41.90;;;;;;;4.28;100.00;99667.88;105791;1253;99283;-79
2024/01/01 06:07:05;;;;;;;86.40;40.70;;;;;;;4.27;100.00;99671.16;105704;1254;97797;-78
2024/01/01 06:09:51;;;;;;;86.10;39.80;;;;;;;4.24;100.00;99671.14;105661;1253;96619;-78
2024/01/01 06:12:37;;;;;;;87.20;41.40;;;;;;;4.22;100.00;99671.15;105717;1259;98395;-79
2024/01/01 06:15:23;;;;;;;85.20;39.00;;;;;;;4.24;100.00;99669.70;105751;1254;101243;-79
2024/01/01 06:18:10;;;;;;;79.80;38.30;;;;;;;4.25;100.00;99673.79;106192;1254;99163;-79
2024/01/01 06:20:56;;;;;;;83.60;39.10;;;;;;;4.26;100.00;99674.64;106267;1253;99087;-79
2024/01/01 06:23:45;;;;;;;86.70;39.40;;;;;;;4.28;100.00;99670.83;106518;1253;96606;-80
2024/01/01 06:26:30;;;;;;;83.60;38.90;;;;;;;4.30;100.00;99667.58;106320;1255;96765;-79
2024/01/01 06:29:16;;;;;;;77.20;37.20;;;;;;;4.32;100.00;99658.55;106233;1254;101739;-79
2024/01/01 06:32:02;;;;;;;89.80;40.10;;;;;;;4.31;100.00;99653.31;106336;1258;100444;-79
2024/01/01 06:34:47;;;;;;;85.40;38.80;;;;;;;4.29;100.00;99652.34;106155;1254;97813;-79
2024/01/01 06:37:33;;;;;;;85.90;39.00;;;;;;;4.27;100.00;99648.86;106289;1254;96521;-79
2024/01/01 06:40:19;;;;;;;82.70;39.40;;;;;;;4.24;100.00;99648.54;106262;1255;97920;-79
2024/01/01 06:43:04;;;;;;;83.70;39.20;;;;;;;4.20;100.00;99648.58;105951;1254;100920;-78
2024/01/01 06:45:50;;;;;;;93.50;39.00;;;;;;;4.21;100.00;99649.38;105998;1254;100403;-79
2024/01/01 06:48:35;;;;;;;88.30;38.80;;;;;;;4.24;100.00;99645.16;106106;1255;97838;-78
2024/01/01 06:51:21;;;;;;;86.00;38.30;;;;;;;4.25;100.00;99648.94;106073;1257;96637;-78
2024/01/01 06:54:07;;;;;;;86.10;38.90;;;;;;;4.27;100.00;99648.73;106295;1254;96599;-79
2024/01/01 06:56:52;;;;;;;83.70;37.50;;;;;;;4.29;100.00;99646.34;106331;1257;100073;-79
2024/01/01 06:59:38;;;;;;;90.80;39.40;;;;;;;4.31;100.00;99648.75;106588;1253;99512;-79
2024/01/01 07:02:25;;;;;;;83.80;36.40;;;;;;;4.32;100.00;99651.96;106302;1254;97764;-79
2024/01/01 07:05:10;;;;;;;83.40;37.80;;;;;;;4.33;100.00;99654.88;106136;1259;96522;-79
2024/01/01 07:07:56;;;;;;;82.50;38.30;;;;;;;4.35;100.00;99652.14;106191;1254;97262;-80
2024/01/01 07:10:41;;;;;;;91.70;38.80;;;;;;;4.37;100.00;99653.90;106207;1258;101370;-78
2024/01/01 07:13:27;;;;;;;88.40;37.10;;;;;;;4.37;100.00;99658.05;106226;1258;100452;-79
2024/01/01 07:16:13;;;;;;;80.50;38.00;;;;;;;4.35;100.00;99658.08;106176;1254;98506;-79
2024/01/01 07:18:58;;;;;;;86.60;39.40;;;;;;;4.35;100.00;99655.80;106250;1254;96609;-79
2024/01/01 07:21:44;;;;;;;83.30;39.60;;;;;;;4.37;100.00;99657.12;106187;1258;96636;-79
2024/01/01 07:24:29;;;;;;;85.40;38.80;;;;;;;4.39;100.00;99661.36;106188;1258;101259;-78
2024/01/01 07:27:15;;;;;;;83.90;37.50;;;;;;;4.41;100.00;99661.41;106087;1254;100371;-78
2024/01/01 07:30:03;;;;;;;83.80;39.70;;;;;;;4.43;100.00;99664.39;106083;1255;97792;-80
2024/01/01 07:32:49;;;;;;;88.80;40.20;;;;;;;4.45;100.00;99664.32;106142;1259;96674;-80
2024/01/01 07:35:34;;;;;;;77.30;37.70;;;;;;;4.45;100.00;99665.02;106307;1253;97146;-80
2024/01/01 07:38:20;;;;;;;79.90;36.80;;;;;;;4.43;100.00;99664.34;106153;1254;99967;-79
2024/01/01 07:41:05;;;;;;;74.20;37.00;;;;;;;4.41;100.00;99666.16;106169;1254;99271;-80
2024/01/01 07:43:51;;;;;;;82.60;37.00;;;;;;;4.40;100.00;99667.20;106123;1258;97731;-79
2024/01/01 07:46:37;;;;;;;78.80;37.10;;;;;;;4.38;100.00;99666.69;105974;1257;96736;-80
2024/01/01 07:49:22;;;;;;;78.00;37.50;;;;;;;4.37;100.00;99665.60;105987;1258;99440;-79
2024/01/01 07:52:07;;;;;;;78.50;37.40;;;;;;;4.37;100.00;99668.08;105937;1257;100729;-79
2024/01/01 07:54:57;;;;;;;84.00;38.60;;;;;;;4.37;100.00;99668.11;105936;1258;99812;-79
2024/01/01 07:57:43;;;;;;;85.40;38.00;;;;;;;4.36;100.00;99668.39;106235;1254;97900;-82
2024/01/01 08:00:28;;;;;;;87.10;39.20;;;;;;;4.35;100.00;99662.59;106021;1258;96752;-78
2024/01/01 08:03:14;;;;;;;76.30;36.20;;;;;;;4.35;100.00;99668.10;106645;1258;97249;-79
2024/01/01 08:06:00;;;;;;;80.70;37.10;;;;;;;4.35;100.00;99671.80;106514;1254;100973;-77
2024/01/01 08:08:46;;;;;;;78.10;36.80;;;;;;;4.35;100.00;99673.98;105499;1253;100323;-77
2024/01/01 08:11:32;;;;;;;76.80;37.70;;;;;;;4.37;100.00;99670.41;105964;1254;97790;-79
2024/01/01 08:14:18;;;;;;;78.60;35.40;;;;;;;4.39;100.00;99667.88;106008;1256;97056;-80
2024/01/01 08:17:03;;;;;;;81.90;39.80;;;;;;;4.41;100.00;99660.95;106045;1254;97099;-80
2024/01/01 08:19:48;;;;;;;83.20;35.60;;;;;;;4.43;100.00;99653.95;106168;1256;100985;-80
2024/01/01 08:22:34;;;;;;;70.40;35.10;;;;;;;4.44;100.00;99653.69;106047;1257;100403;-77
2024/01/01 08:25:19;;;;;;;76.10;35.40;;;;;;;4.43;100.00;99653.55;106202;1254;97764;-79
2024/01/01 08:28:05;;;;;;;75.40;36.90;;;;;;;4.39;100.00;99654.96;106102;1254;96700;-78
2024/01/01 08:30:51;;;;;;;78.60;35.40;;;;;;;4.36;100.00;99655.59;106031;1254;97259;-78
2024/01/01 08:33:36;;;;;;;83.50;38.80;;;;;;;4.36;100.00;99655.83;105797;1258;100639;-78
2024/01/01 08:36:22;;;;;;;78.90;37.10;;;;;;;4.36;100.00;99658.94;105818;1254;99261;-79
2024/01/01 08:39:09;;;;;;;78.80;37.00;;;;;;;4.39;100.00;99659.40;106721;1254;98974;-79
2024/01/01 08:41:55;;;;;;;80.80;38.30;;;;;;;4.40;100.00;99658.67;106624;1258;96720;-80
2024/01/01 08:44:40;;;;;;;77.70;37.00;;;;;;;4.40;100.00;99660.80;106717;1254;99389;-79
2024/01/01 08:47:26;;;;;;;73.70;33.50;;;;;;;4.40;100.00;99660.33;106170;1258;100166;-78
2024/01/01 08:50:12;;;;;;;74.90;34.10;;;;;;;4.41;100.00;99664.13;106093;1258;100514;-78
2024/01/01 08:52:58;;;;;;;65.60;31.90;;;;;;;4.42;100.00;99664.37;106141;1254;97747;-79
2024/01/01 08:55:43;;;;;;;63.40;31.50;;;;;;;4.42;100.00;99664.80;106021;1256;97868;-79
2024/01/01 08:58:28;;;;;;;65.20;32.30;;;;;;;4.42;100.00;99663.73;105669;1258;96524;-78
2024/01/01 09:01:14;;;;;;;65.20;29.80;;;;;;;4.43;100.00;99668.23;105776;1254;101365;-79
2024/01/01 09:04:03;;;;;;;66.40;30.80;;;;;;;4.44;100.00;99666.77;106124;1254;100536;-79
2024/01/01 09:06:49;;;;;;;60.30;32.20;;;;;;;4.43;100.00;99664.91;106170;1254;97787;-78
2024/01/01 09:09:35;;;;;;;61.00;31.20;;;;;;;4.43;100.00;99667.70;106188;1257;97235;-80
2024/01/01 09:12:20;;;;;;;55.40;29.30;;;;;;;4.45;100.00;99666.77;106191;1254;97786;-78
2024/01/01 09:15:06;;;;;;;53.30;29.20;;;;;;;4.46;100.00;99668.66;106244;1254;100048;-78
2024/01/01 09:17:51;;;;;;;60.20;30.50;;;;;;;4.46;100.00;99672.02;107334;1254;99164;-79
2024/01/01 09:20:40;;;;;;;53.70;28.00;;;;;;;4.45;100.00;99670.16;106019;1257;97774;-81
2024/01/01 09:23:27;;;;;;;51.30;28.50;;;;;;;4.42;100.00;99674.00;105392;1254;96684;-78
2024/01/01 09:26:14;;;;;;;55.60;29.00;;;;;;;4.40;100.00;99673.05;105471;1258;97068;-77
2024/01/01 09:29:00;;;;;;;69.70;34.80;;;;;;;4.41;100.00;99662.34;105460;1258;100710;-77
2024/01/01 09:31:46;;;;;;;84.60;39.70;;;;;;;4.42;100.00;99661.64;105383;1254;100490;-78
2024/01/01 09:34:31;;;;;;;193.30;85.70;;;;;;;4.41;100.00;99661.05;105704;1258;97776;-78
2024/01/01 09:37:17;;;;;;;100.50;52.30;;;;;;;4.43;100.00;99664.95;105596;1256;98310;-78
2024/01/01 09:40:03;;;;;;;76.30;42.80;;;;;;;4.45;100.00;99661.35;105952;1254;96542;-79
2024/01/01 09:42:49;;;;;;;64.30;34.90;;;;;;;4.47;100.00;99659.14;106173;1255;100098;-79
2024/01/01 09:45:37;;;;;;;56.00;33.00;;;;;;;4.50;100.00;99657.38;106099;1255;99063;-79
2024/01/01 09:48:23;;;;;;;51.80;30.40;;;;;;;4.53;100.00;99653.70;106098;1256;98397;-78
2024/01/01 09:51:09;;;;;;;58.80;33.40;;;;;;;4.54;100.00;99647.58;106594;1258;96677;-79
2024/01/01 09:53:54;;;;;;;57.50;31.40;;;;;;;4.55;100.00;99649.73;106098;1258;98327;-78
2024/01/01 09:56:40;;;;;;;54.60;30.00;;;;;;;4.54;100.00;99649.47;106077;1258;100727;-78
2024/01/01 09:59:36;;;;;;;50.60;28.10;;;;;;;4.52;100.00;99647.29;106148;1254;99102;-80
2024/01/01 10:02:24;;;;;;;47.80;28.30;;;;;;;4.52;100.00;99646.55;106249;1254;98951;-80
2024/01/01 10:05:11;;;;;;;57.60;33.30;;;;;;;4.51;100.00;99648.74;106120;1258;96551;-79
2024/01/01 10:08:08;;;;;;;59.50;35.60;;;;;;;4.53;100.00;99650.00;106893;1254;97086;-79
2024/01/01 10:10:53;;;;;;;51.30;30.40;;;;;;;4.55;100.00;99642.02;106090;1258;100407;-78
2024/01/01 10:13:39;;;;;;;50.40;29.20;;;;;;;4.56;100.00;99636.41;105715;1258;99119;-78
2024/01/01 10:16:26;;;;;;;50.80;29.40;;;;;;;4.56;100.00;99633.33;105610;1258;97827;-78
2024/01/01 10:19:13;;;;;;;49.10;29.60;;;;;;;4.57;100.00;99632.80;105612;1256;97330;-77
2024/01/01 10:22:11;;;;;;;51.90;30.60;;;;;;;4.55;100.00;99628.85;105562;1258;97082;-79
2024/01/01 10:25:12;;;;;;;57.80;34.80;;;;;;;4.56;100.00;99627.59;106029;1255;101704;-79
2024/01/01 10:28:00;;;;;;;136.80;67.90;;;;;;;4.56;100.00;99619.56;105974;1258;100420;-79
2024/01/01 10:30:49;;;;;;;96.70;48.60;;;;;;;4.56;100.00;99618.41;106117;1258;97758;-79
2024/01/01 10:33:35;;;;;;;86.90;51.50;;;;;;;4.54;100.00;99615.60;106143;1254;96523;-79
2024/01/01 10:36:22;;;;;;;56.50;34.60;;;;;;;4.53;100.00;99615.35;106691;1254;96542;-78
2024/01/01 10:39:12;;;;;;;59.80;35.80;;;;;;;4.53;100.00;99609.99;106029;1258;100827;-79
2024/01/01 10:41:57;;;;;;;53.30;31.10;;;;;;;4.56;100.00;99609.23;107246;1255;99229;-79
2024/01/01 10:44:43;;;;;;;52.70;29.80;;;;;;;4.57;100.00;99610.08;106822;1254;99053;-80
2024/01/01 10:47:29;;;;;;;49.80;30.00;;;;;;;4.57;100.00;99609.39;106168;1256;96577;-78
2024/01/01 10:50:28;;;;;;;51.80;30.90;;;;;;;4.57;100.00;99602.10;105557;1254;97138;-79
2024/01/01 10:53:22;;;;;;;52.10;29.80;;;;;;;4.58;100.00;99597.45;105614;1257;100723;-79
2024/01/01 10:56:25;;;;;;;52.20;28.60;;;;;;;4.56;100.00;99594.70;105585;1256;100302;-77
2024/01/01 10:59:21;;;;;;;47.90;27.90;;;;;;;4.57;100.00;99593.83;105649;1254;98853;-78
2024/01/01 11:02:09;;;;;;;51.20;31.10;;;;;;;4.60;100.00;99588.72;105591;1256;97122;-78
2024/01/01 11:05:05;;;;;;;52.20;32.00;;;;;;;4.63;100.00;99588.17;105673;1254;97726;-79
2024/01/01 11:07:54;;;;;;;62.10;36.10;;;;;;;4.65;100.00;99591.64;106777;1258;101072;-79
2024/01/01 11:10:45;;;;;;;56.00;35.40;;;;;;;4.64;100.00;99593.00;106144;1258;100397;-78
2024/01/01 11:13:30;;;;;;;52.10;32.70;;;;;;;4.64;100.00;99590.63;106209;1258;97752;-78
2024/01/01 11:16:16;;;;;;;52.30;30.90;;;;;;;4.60;100.00;99593.98;106110;1258;96616;-79
2024/01/01 11:19:05;;;;;;;56.00;32.20;;;;;;;4.57;100.00;99592.28;106170;1254;96641;-79
2024/01/01 11:21:51;;;;;;;55.20;32.30;;;;;;;4.54;100.00;99583.96;106242;1256;101282;-79
2024/01/01 11:24:45;;;;;;;55.50;32.90;;;;;;;4.53;100.00;99582.08;105918;1258;99137;-77
2024/01/01 11:27:31;;;;;;;53.60;32.20;;;;;;;4.51;100.00;99585.31;105914;1258;99601;-78
2024/01/01 11:30:17;;;;;;;53.60;31.50;;;;;;;4.48;100.00;99586.80;106014;1254;96785;-80
2024/01/01 11:33:02;;;;;;;60.10;39.30;;;;;;;4.45;100.00;99589.91;106098;1254;97054;-78
2024/01/01 11:35:48;;;;;;;58.60;35.50;;;;;;;4.43;100.00;99589.25;106074;1255;100724;-79
2024/01/01 11:38:39;;;;;;;;;;;;;;;4.39;100.00;99590.64;106607;1256;100391;-79
2024/01/01 11:41:29;;;;;;;57.50;34.90;;;;;;;4.34;100.00;99586.91;105993;1256;97859;-79
2024/01/01 11:44:15;;;;;;;56.90;34.00;;;;;;;4.34;100.00;99586.73;106072;1256;97307;-79
2024/01/01 11:47:01;;;;;;;60.60;33.30;;;;;;;4.35;100.00;99586.87;106099;1254;96558;-79
2024/01/01 11:49:53;;;;;;;68.40;40.60;;;;;;;4.34;100.00;99585.59;106029;1256;100669;-79
2024/01/01 11:52:40;;;;;;;67.70;38.30;;;;;;;4.34;100.00;99583.42;106108;1258;99132;-78
2024/01/01 11:55:26;;;;;;;64.30;39.70;;;;;;;4.37;100.00;99577.09;106030;1256;97792;-80
2024/01/01 11:58:13;;;;;;;67.90;37.90;;;;;;;4.41;100.00;99577.11;106152;1258;96600;-78
2024/01/01 12:00:58;;;;;;;68.70;39.30;;;;;;;4.44;100.00;99581.16;106598;1256;96691;-79
2024/01/01 12:03:44;;;;;;;70.20;42.40;;;;;;;4.44;100.00;99578.34;106075;1258;101306;-78
2024/01/01 12:06:30;;;;;;;72.40;43.10;;;;;;;4.45;100.00;99577.58;106116;1254;99123;-78
2024/01/01 12:09:16;;;;;;;70.30;42.30;;;;;;;4.46;100.00;99574.77;106054;1254;97714;-81
2024/01/01 12:12:09;;;;;;;80.90;48.10;;;;;;;4.48;100.00;99572.20;106024;1256;96601;-78
2024/01/01 12:15:08;;;;;;;79.40;47.30;;;;;;;4.50;100.00;99576.95;105637;1254;96583;-79
2024/01/01 12:17:54;;;;;;;77.80;46.20;;;;;;;4.50;100.00;99578.55;106012;1256;99993;-79
2024/01/01 12:20:39;;;;;;;85.00;50.40;;;;;;;4.53;100.00;99576.61;106110;1256;99253;-78
2024/01/01 12:23:25;;;;;;;78.70;49.00;;;;;;;4.55;100.00;99571.92;105877;1259;99042;-78
2024/01/01 12:26:10;;;;;;;82.70;47.50;;;;;;;4.57;100.00;99566.98;106007;1254;96617;-78
2024/01/01 12:29:13;;;;;;;80.60;47.40;;;;;;;4.59;100.00;99563.77;106221;1255;97065;-79
2024/01/01 12:31:58;;;;;;;86.60;49.00;;;;;;;4.61;100.00;99563.85;106168;1254;101299;-80
2024/01/01 12:34:43;;;;;;;78.70;47.40;;;;;;;4.64;100.00;99564.39;106188;1256;100500;-79